Time;durP1;ratioP1;P1;durP2;ratioP2;P2;SDS_P1;SDS_P2;PMS_P1;PMS_P2;Temp;Humidity;BMP_temperature;BMP_pressure;BME280_temperature;BME280_humidity;BME280_pressure;Samples;Min_cycle;Max_cycle;Signal;HPM_P1;HPM_P2
2021/06/22 00:01:55;;;;;;;11.55;10.60;;;29.40;48.40;;;;;;4387929;32;20059;-37
2021/06/22 00:04:21;;;;;;;11.30;10.35;;;29.40;48.10;;;;;;4388103;32;20156;-37
2021/06/22 00:06:48;;;;;;;12.50;11.12;;;29.40;48.10;;;;;;4388129;32;20157;-36
2021/06/22 00:09:14;;;;;;;12.60;11.40;;;29.50;48.30;;;;;;4373975;32;20069;-36
2021/06/22 00:11:40;;;;;;;12.37;11.15;;;29.40;48.20;;;;;;4387857;32;20085;-37
2021/06/22 00:14:07;;;;;;;11.15;10.25;;;29.40;48.20;;;;;;4387613;32;20095;-37
2021/06/22 00:16:33;;;;;;;12.65;11.35;;;29.40;48.00;;;;;;4387952;32;20142;-37
2021/06/22 00:19:00;;;;;;;12.57;11.38;;;29.40;48.10;;;;;;4387508;32;20545;-37
2021/06/22 00:21:27;;;;;;;12.57;10.38;;;29.30;48.30;;;;;;4387666;32;20068;-37
2021/06/22 00:23:54;;;;;;;12.32;11.07;;;29.30;48.10;;;;;;4373625;32;20605;-36
2021/06/22 00:26:20;;;;;;;12.52;11.57;;;29.20;48.50;;;;;;4387856;32;20066;-37
2021/06/22 00:28:47;;;;;;;12.50;11.40;;;29.20;48.50;;;;;;4387954;32;20058;-38
2021/06/22 00:31:14;;;;;;;12.85;11.65;;;29.20;48.70;;;;;;4387314;32;20607;-36
2021/06/22 00:33:41;;;;;;;12.48;11.50;;;29.20;48.90;;;;;;4387827;32;20080;-37
2021/06/22 00:36:07;;;;;;;12.68;11.48;;;29.20;48.90;;;;;;4387922;32;20133;-38
2021/06/22 00:38:34;;;;;;;12.43;11.43;;;29.20;48.90;;;;;;4387756;32;20062;-37
2021/06/22 00:41:00;;;;;;;15.10;12.32;;;29.10;48.80;;;;;;4387317;32;20109;-38
2021/06/22 00:43:27;;;;;;;12.88;11.88;;;29.10;49.00;;;;;;4387983;32;20173;-37
2021/06/22 00:45:53;;;;;;;12.82;11.80;;;29.00;48.90;;;;;;4387628;32;20058;-36
2021/06/22 00:48:19;;;;;;;13.10;12.00;;;29.00;49.00;;;;;;4381706;32;20092;-37
2021/06/22 00:50:46;;;;;;;12.23;11.12;;;29.00;49.00;;;;;;4402637;32;20068;-37
2021/06/22 00:53:12;;;;;;;12.93;11.52;;;29.10;48.90;;;;;;4402466;32;20088;-37
2021/06/22 00:55:39;;;;;;;13.57;12.23;;;29.10;48.70;;;;;;4388443;32;20088;-37
2021/06/22 00:58:07;;;;;;;12.63;11.18;;;28.80;48.40;;;;;;4388275;32;20441;-37
2021/06/22 01:00:38;;;;;;;12.88;11.70;;;28.70;48.70;;;;;;4388894;32;20508;-37
2021/06/22 01:03:05;;;;;;;12.00;10.98;;;28.70;49.10;;;;;;4389458;32;20069;-36
2021/06/22 01:05:32;;;;;;;16.75;12.48;;;28.80;49.10;;;;;;4404497;32;20057;-37
2021/06/22 01:07:59;;;;;;;14.98;11.63;;;28.90;48.90;;;;;;4405437;32;20041;-38
2021/06/22 01:10:26;;;;;;;12.63;11.38;;;28.80;48.60;;;;;;4405522;32;20069;-37
2021/06/22 01:12:53;;;;;;;23.80;16.15;;;28.80;48.70;;;;;;4391687;32;20522;-37
2021/06/22 01:15:22;;;;;;;13.27;11.00;;;29.00;48.80;;;;;;4405791;32;20065;-37
2021/06/22 01:17:57;;;;;;;16.35;12.57;;;29.20;48.30;;;;;;4391337;32;20141;-37
2021/06/22 01:20:29;;;;;;;17.58;11.77;;;29.50;47.80;;;;;;4392009;32;20058;-36
2021/06/22 01:22:56;;;;;;;18.67;12.02;;;29.80;47.50;;;;;;4405563;32;20045;-37
2021/06/22 01:25:23;;;;;;;16.58;11.43;;;30.00;46.90;;;;;;4405530;32;20059;-37
2021/06/22 01:27:49;;;;;;;13.15;11.40;;;30.20;46.20;;;;;;4391054;32;20145;-37
2021/06/22 01:30:16;;;;;;;13.80;11.82;;;30.30;46.20;;;;;;4405065;32;20076;-37
2021/06/22 01:32:43;;;;;;;21.87;12.95;;;30.30;46.10;;;;;;4405377;32;20069;-37
2021/06/22 01:35:11;;;;;;;21.73;11.73;;;30.40;46.10;;;;;;4374774;32;20062;-37
2021/06/22 01:37:48;;;;;;;15.77;12.02;;;30.50;45.80;;;;;;4374734;32;20064;-37
2021/06/22 01:40:15;;;;;;;31.30;13.05;;;30.60;45.70;;;;;;4375698;32;20106;-36
2021/06/22 01:42:41;;;;;;;16.30;11.98;;;30.70;45.70;;;;;;4362505;32;20521;-36
2021/06/22 01:45:08;;;;;;;15.27;12.10;;;30.90;45.40;;;;;;4387536;32;20528;-35
2021/06/22 01:47:34;;;;;;;28.27;13.27;;;31.10;45.00;;;;;;4383806;32;20168;-35
2021/06/22 01:50:02;;;;;;;26.33;13.38;;;31.40;44.50;;;;;;4372171;32;20070;-35
2021/06/22 01:52:28;;;;;;;21.52;12.15;;;31.60;44.20;;;;;;4372127;32;20066;-35
2021/06/22 01:54:58;;;;;;;20.48;12.20;;;31.90;43.90;;;;;;4360026;32;20149;-37
2021/06/22 01:57:25;;;;;;;20.70;11.90;;;32.10;43.50;;;;;;4371942;32;20634;-36
2021/06/22 01:59:52;;;;;;;16.77;11.60;;;32.40;43.20;;;;;;4372172;32;20147;-36
2021/06/22 02:02:19;;;;;;;18.55;11.07;;;32.60;42.80;;;;;;4372413;32;20081;-37
2021/06/22 02:04:46;;;;;;;12.77;11.05;;;32.80;42.50;;;;;;4359128;32;20093;-39
2021/06/22 02:07:12;;;;;;;13.48;10.82;;;33.10;42.30;;;;;;4373825;32;20098;-35
2021/06/22 02:09:39;;;;;;;18.00;11.35;;;33.30;41.90;;;;;;4389212;32;20089;-36
2021/06/22 02:12:06;;;;;;;15.32;9.82;;;33.60;41.60;;;;;;4389500;32;20077;-37
2021/06/22 02:14:32;;;;;;;14.63;10.20;;;33.90;41.00;;;;;;4389637;32;20062;-37
2021/06/22 02:16:59;;;;;;;17.48;10.48;;;34.30;40.60;;;;;;4389183;32;20124;-36
2021/06/22 02:19:25;;;;;;;14.30;10.27;;;34.60;40.20;;;;;;4371387;32;20483;-37
2021/06/22 02:21:51;;;;;;;20.35;10.30;;;34.90;39.90;;;;;;4371859;32;20204;-37
2021/06/22 02:24:18;;;;;;;11.52;10.20;;;35.10;39.70;;;;;;4371855;32;20094;-37
2021/06/22 02:26:44;;;;;;;10.70;9.52;;;35.40;39.70;;;;;;4359600;32;20081;-37
2021/06/22 02:29:10;;;;;;;12.90;10.25;;;35.60;39.50;;;;;;4371389;32;20062;-37
2021/06/22 02:31:37;;;;;;;15.77;14.07;;;35.90;39.40;;;;;;4371707;32;20150;-37
2021/06/22 02:34:03;;;;;;;12.32;10.35;;;36.10;39.10;;;;;;4371113;32;20180;-36
2021/06/22 02:36:30;;;;;;;11.82;10.63;;;36.20;38.90;;;;;;4371377;32;20073;-36
2021/06/22 02:38:57;;;;;;;12.95;10.57;;;36.30;38.50;;;;;;4371761;32;20061;-37
2021/06/22 02:41:23;;;;;;;15.43;10.40;;;36.40;38.50;;;;;;4359034;32;20186;-36
2021/06/22 02:43:49;;;;;;;11.52;10.35;;;36.50;38.60;;;;;;4370885;32;20058;-37
2021/06/22 02:46:16;;;;;;;10.18;9.48;;;36.50;38.80;;;;;;4371221;32;20105;-37
2021/06/22 02:48:42;;;;;;;10.70;9.60;;;36.50;38.70;;;;;;4371167;32;20073;-36
2021/06/22 02:51:09;;;;;;;11.32;10.15;;;36.60;38.50;;;;;;4358673;32;20178;-36
2021/06/22 02:53:35;;;;;;;10.50;8.95;;;36.70;38.50;;;;;;4341015;33;20097;-38
2021/06/22 02:56:01;;;;;;;12.95;9.60;;;36.80;38.40;;;;;;4343891;32;20201;-38
2021/06/22 02:58:28;;;;;;;10.73;9.77;;;37.00;38.40;;;;;;4326609;33;20083;-38
2021/06/22 03:00:54;;;;;;;14.07;10.07;;;37.00;38.20;;;;;;4326794;33;20161;-36
2021/06/22 03:03:21;;;;;;;10.55;9.65;;;37.10;38.10;;;;;;4326634;33;20065;-36
2021/06/22 03:05:47;;;;;;;10.52;9.63;;;37.30;38.00;;;;;;4326316;33;20189;-37
2021/06/22 03:08:13;;;;;;;11.30;10.15;;;37.30;37.90;;;;;;4325636;33;20091;-37
2021/06/22 03:10:40;;;;;;;11.25;10.02;;;37.30;37.70;;;;;;4314363;33;20070;-38
2021/06/22 03:13:06;;;;;;;12.68;10.48;;;37.30;37.50;;;;;;4325945;33;20201;-37
2021/06/22 03:15:33;;;;;;;11.60;10.65;;;37.50;37.30;;;;;;4326665;33;20068;-37
2021/06/22 03:17:59;;;;;;;14.00;10.18;;;37.60;36.90;;;;;;4281782;33;20106;-37
2021/06/22 03:20:25;;;;;;;10.93;9.85;;;37.70;36.90;;;;;;4282486;33;20566;-38
2021/06/22 03:22:52;;;;;;;10.27;9.35;;;37.80;36.90;;;;;;4282427;33;20160;-38
2021/06/22 03:25:19;;;;;;;14.40;10.73;;;38.00;36.80;;;;;;4270266;33;20591;-37
2021/06/22 03:27:45;;;;;;;11.00;9.90;;;38.10;36.50;;;;;;4282402;33;20226;-37
2021/06/22 03:30:13;;;;;;;14.80;10.07;;;38.10;36.30;;;;;;4286368;33;20534;-37
2021/06/22 03:32:40;;;;;;;11.05;9.98;;;38.10;36.40;;;;;;4311549;33;20101;-37
2021/06/22 03:35:10;;;;;;;14.57;10.23;;;38.30;36.40;;;;;;4301534;33;20067;-37
2021/06/22 03:37:36;;;;;;;11.93;9.57;;;38.30;36.40;;;;;;4313908;33;20062;-37
2021/06/22 03:40:05;;;;;;;11.57;9.95;;;38.40;36.00;;;;;;4325672;33;20150;-37
2021/06/22 03:42:36;;;;;;;13.10;10.32;;;38.50;35.80;;;;;;4326218;33;20059;-37
2021/06/22 03:45:05;;;;;;;11.55;9.93;;;38.80;35.70;;;;;;4329595;33;20559;-37
2021/06/22 03:47:31;;;;;;;10.93;9.90;;;39.00;35.30;;;;;;4343558;32;20059;-38
2021/06/22 03:49:57;;;;;;;10.55;9.55;;;39.30;35.00;;;;;;4396752;32;20066;-37
2021/06/22 03:52:24;;;;;;;9.98;9.05;;;39.50;34.60;;;;;;4403110;32;20072;-37
2021/06/22 03:54:50;;;;;;;9.70;8.73;;;39.60;34.40;;;;;;4403225;32;20062;-37
2021/06/22 03:57:17;;;;;;;11.25;10.18;;;39.60;34.30;;;;;;4402985;32;20120;-37
2021/06/22 03:59:43;;;;;;;15.98;9.40;;;39.50;34.40;;;;;;4402931;32;20050;-38
2021/06/22 04:02:10;;;;;;;11.45;9.25;;;39.50;34.40;;;;;;4403271;32;20067;-37
2021/06/22 04:04:36;;;;;;;9.73;8.73;;;39.50;34.40;;;;;;4402661;32;20085;-37
2021/06/22 04:07:06;;;;;;;10.55;9.48;;;39.40;34.50;;;;;;4402626;32;20069;-35
2021/06/22 04:09:32;;;;;;;14.13;9.85;;;39.30;34.60;;;;;;4403239;32;20080;-37
2021/06/22 04:11:59;;;;;;;10.57;9.68;;;39.20;34.90;;;;;;4403289;32;20133;-38
2021/06/22 04:14:25;;;;;;;9.68;8.73;;;39.30;34.90;;;;;;4388826;32;20068;-37
2021/06/22 04:16:52;;;;;;;17.12;7.65;;;39.40;35.00;;;;;;4402997;32;20085;-37
2021/06/22 04:19:18;;;;;;;14.45;8.68;;;39.50;35.50;;;;;;4402480;32;20833;-36
2021/06/22 04:21:45;;;;;;;9.50;6.93;;;39.60;35.40;;;;;;4402540;32;20129;-38
2021/06/22 04:24:11;;;;;;;10.45;6.95;;;39.70;35.30;;;;;;4403042;32;20075;-36
2021/06/22 04:26:38;;;;;;;10.57;7.07;;;39.80;35.00;;;;;;4402516;32;20061;-38
2021/06/22 04:29:04;;;;;;;13.75;7.30;;;40.00;35.00;;;;;;4402790;32;20084;-36
2021/06/22 04:31:30;;;;;;;9.02;7.70;;;40.10;34.80;;;;;;4403126;32;20077;-38
2021/06/22 04:33:57;;;;;;;8.15;6.72;;;40.20;34.60;;;;;;4402793;32;20077;-38
2021/06/22 04:36:23;;;;;;;8.27;7.25;;;40.20;34.40;;;;;;4402310;32;20612;-38
2021/06/22 04:38:50;;;;;;;10.35;6.43;;;40.30;34.30;;;;;;4403046;32;20516;-36
2021/06/22 04:41:16;;;;;;;8.00;7.07;;;40.20;33.90;;;;;;4391639;32;20108;-37
2021/06/22 04:43:42;;;;;;;12.02;7.97;;;40.10;33.90;;;;;;4405854;32;20072;-37
2021/06/22 04:46:09;;;;;;;12.80;7.60;;;40.00;33.80;;;;;;4405803;32;20129;-38
2021/06/22 04:48:38;;;;;;;9.15;8.30;;;39.90;34.00;;;;;;4396039;32;20066;-37
2021/06/22 04:51:05;;;;;;;9.80;8.73;;;39.90;34.10;;;;;;4377058;32;20060;-38
2021/06/22 04:53:31;;;;;;;10.88;8.32;;;39.90;34.00;;;;;;4390626;32;20151;-37
2021/06/22 04:55:58;;;;;;;7.95;7.25;;;39.90;34.00;;;;;;4390773;32;20065;-38
2021/06/22 04:58:25;;;;;;;8.48;7.55;;;39.80;33.90;;;;;;4342617;33;20195;-37
2021/06/22 05:00:51;;;;;;;9.52;7.37;;;39.70;34.20;;;;;;4330461;33;20539;-37
2021/06/22 05:03:17;;;;;;;8.80;6.85;;;39.70;35.20;;;;;;4342633;33;20071;-37
2021/06/22 05:05:44;;;;;;;7.25;6.57;;;39.70;34.30;;;;;;4330516;33;20084;-37
2021/06/22 05:08:10;;;;;;;8.90;7.50;;;39.70;33.90;;;;;;4342588;33;20071;-37
2021/06/22 05:10:37;;;;;;;7.55;6.70;;;39.90;33.30;;;;;;4342410;33;20085;-37
2021/06/22 05:13:03;;;;;;;8.70;7.53;;;40.10;33.00;;;;;;4342922;33;20063;-36
2021/06/22 05:15:30;;;;;;;8.68;7.50;;;40.40;32.70;;;;;;4342393;33;20083;-37
2021/06/22 05:17:57;;;;;;;8.20;7.37;;;40.50;32.40;;;;;;4342523;33;20098;-37
2021/06/22 05:20:23;;;;;;;7.68;6.90;;;40.60;32.40;;;;;;4342362;33;20082;-37
2021/06/22 05:22:50;;;;;;;12.10;6.78;;;40.70;31.90;;;;;;4330649;33;20136;-38
2021/06/22 05:25:16;;;;;;;7.95;6.87;;;40.70;32.60;;;;;;4342825;33;20520;-38
2021/06/22 05:27:43;;;;;;;8.35;7.55;;;40.80;31.80;;;;;;4342612;33;20137;-37
2021/06/22 05:30:10;;;;;;;9.60;7.57;;;41.00;31.70;;;;;;4342634;33;20532;-38
2021/06/22 05:32:37;;;;;;;9.77;6.80;;;41.00;31.80;;;;;;4342286;33;20607;-36
2021/06/22 05:35:04;;;;;;;10.00;7.97;;;41.10;32.00;;;;;;4350739;32;20066;-38
2021/06/22 05:37:30;;;;;;;8.23;7.53;;;41.20;32.10;;;;;;4389466;32;20069;-38
2021/06/22 05:39:57;;;;;;;7.50;6.78;;;41.20;32.20;;;;;;4389632;32;20072;-38
2021/06/22 05:42:23;;;;;;;9.45;7.10;;;41.20;32.40;;;;;;4389581;32;20076;-38
2021/06/22 05:44:50;;;;;;;10.18;7.65;;;41.10;32.60;;;;;;4375113;32;20101;-38
2021/06/22 05:47:16;;;;;;;8.00;7.25;;;40.90;32.80;;;;;;4376907;32;20070;-36
2021/06/22 05:49:43;;;;;;;9.57;7.62;;;40.80;33.30;;;;;;4404311;32;20142;-38
2021/06/22 05:52:09;;;;;;;7.90;7.12;;;40.70;33.60;;;;;;4404828;32;20073;-36
2021/06/22 05:54:37;;;;;;;12.02;7.65;;;40.60;33.90;;;;;;4405027;32;20061;-37
2021/06/22 05:57:06;;;;;;;11.30;8.70;;;40.40;33.80;;;;;;4404848;32;20104;-37
2021/06/22 05:59:32;;;;;;;10.48;8.50;;;40.20;34.10;;;;;;4390528;32;20523;-38
2021/06/22 06:01:59;;;;;;;15.23;9.80;;;40.00;34.20;;;;;;4404849;32;20058;-38
2021/06/22 06:04:28;;;;;;;12.18;8.80;;;39.80;34.80;;;;;;4404745;32;20523;-37
2021/06/22 06:06:55;;;;;;;12.07;9.10;;;39.80;35.60;;;;;;4390228;32;20524;-37
2021/06/22 06:09:23;;;;;;;10.77;8.82;;;39.70;36.20;;;;;;4404433;32;20061;-38
2021/06/22 06:11:50;;;;;;;12.43;9.45;;;39.70;36.40;;;;;;4404584;32;20061;-37
2021/06/22 06:14:17;;;;;;;10.50;8.82;;;39.70;36.40;;;;;;4404227;32;20195;-37
2021/06/22 06:16:43;;;;;;;9.70;8.52;;;39.70;36.10;;;;;;4390363;32;20144;-37
2021/06/22 06:19:10;;;;;;;11.25;8.60;;;39.60;36.20;;;;;;4404897;32;20061;-38
2021/06/22 06:21:38;;;;;;;10.32;8.90;;;39.70;36.10;;;;;;4390204;32;20535;-39
2021/06/22 06:24:07;;;;;;;14.52;9.25;;;39.60;35.20;;;;;;4390101;32;20058;-39
2021/06/22 06:26:45;;;;;;;14.65;8.63;;;39.40;35.20;;;;;;4404428;32;20077;-38
2021/06/22 06:29:34;;;;;;;8.60;7.72;;;39.30;35.30;;;;;;4403796;32;20222;-37
2021/06/22 06:32:01;;;;;;;8.77;8.02;;;39.40;34.90;;;;;;4404343;32;20702;-37
2021/06/22 06:34:27;;;;;;;11.48;7.30;;;39.60;34.60;;;;;;4403847;32;20501;-38
2021/06/22 06:36:54;;;;;;;11.38;7.80;;;39.70;34.10;;;;;;4403726;32;20523;-38
2021/06/22 06:39:20;;;;;;;13.23;7.32;;;39.70;34.00;;;;;;4403554;32;20442;-37
2021/06/22 06:41:46;;;;;;;11.48;9.40;;;39.80;33.70;;;;;;4404043;32;20509;-40
2021/06/22 06:44:13;;;;;;;15.48;7.72;;;40.00;33.80;;;;;;4403803;32;20145;-39
2021/06/22 06:46:39;;;;;;;17.67;7.22;;;40.10;33.80;;;;;;4403673;32;20091;-38
2021/06/22 06:49:06;;;;;;;10.52;8.07;;;40.20;33.20;;;;;;4390741;32;20066;-37
2021/06/22 06:51:32;;;;;;;7.60;6.82;;;40.40;33.90;;;;;;4388524;32;20110;-38
2021/06/22 06:53:59;;;;;;;13.25;7.97;;;40.40;33.00;;;;;;4388636;32;20084;-40
2021/06/22 06:56:25;;;;;;;12.48;9.05;;;40.30;32.90;;;;;;4388541;32;20065;-37
2021/06/22 06:58:51;;;;;;;16.90;7.32;;;40.20;32.80;;;;;;4388404;32;20064;-37
2021/06/22 07:01:18;;;;;;;8.82;6.50;;;40.20;32.90;;;;;;4388421;32;20059;-38
2021/06/22 07:03:45;;;;;;;10.25;6.20;;;40.20;33.10;;;;;;4388215;32;20547;-38
2021/06/22 07:06:14;;;;;;;9.77;6.90;;;40.30;32.70;;;;;;4388289;32;20144;-37
2021/06/22 07:08:41;;;;;;;11.52;6.65;;;40.40;32.80;;;;;;4374374;32;20558;-38
2021/06/22 07:11:08;;;;;;;12.52;6.90;;;40.60;32.60;;;;;;4388701;32;20086;-38
2021/06/22 07:13:34;;;;;;;11.18;7.45;;;40.70;32.60;;;;;;4388366;32;20085;-38
2021/06/22 07:16:01;;;;;;;15.55;6.82;;;40.80;32.70;;;;;;4388290;32;20051;-38
2021/06/22 07:18:29;;;;;;;12.70;5.90;;;41.00;32.60;;;;;;4343242;32;20081;-37
2021/06/22 07:20:57;;;;;;;9.15;6.37;;;41.00;31.90;;;;;;4355507;32;20074;-38
2021/06/22 07:23:24;;;;;;;11.35;5.50;;;41.00;31.90;;;;;;4355870;32;20478;-38
2021/06/22 07:25:51;;;;;;;11.35;5.40;;;41.10;31.90;;;;;;4355728;32;20617;-38
2021/06/22 07:28:17;;;;;;;7.85;5.45;;;41.10;31.30;;;;;;4355611;32;20583;-38
2021/06/22 07:30:44;;;;;;;10.07;5.30;;;41.20;31.40;;;;;;4355658;32;20071;-38
2021/06/22 07:33:10;;;;;;;14.15;5.85;;;41.10;31.20;;;;;;4355395;32;20149;-38
2021/06/22 07:35:37;;;;;;;8.98;5.55;;;40.90;31.50;;;;;;4355568;32;20202;-38
2021/06/22 07:38:04;;;;;;;9.80;4.97;;;40.60;31.80;;;;;;4355891;32;20078;-36
2021/06/22 07:40:30;;;;;;;6.20;4.95;;;40.40;31.80;;;;;;4355622;32;20517;-37
2021/06/22 07:42:57;;;;;;;5.57;4.40;;;40.40;31.90;;;;;;4355372;32;20081;-37
2021/06/22 07:45:24;;;;;;;6.70;4.37;;;40.50;31.70;;;;;;4340219;33;20202;-38
2021/06/22 07:47:50;;;;;;;10.50;5.12;;;40.70;31.60;;;;;;4333371;32;20129;-38
2021/06/22 07:50:17;;;;;;;6.87;4.97;;;40.80;31.20;;;;;;4380535;32;20524;-38
2021/06/22 07:52:43;;;;;;;6.43;4.03;;;40.90;31.50;;;;;;4385619;32;20070;-37
2021/06/22 07:55:16;;;;;;;9.65;5.28;;;40.80;31.40;;;;;;4384942;32;20128;-38
2021/06/22 07:57:47;;;;;;;8.80;4.70;;;40.80;31.40;;;;;;4385812;32;20144;-39
2021/06/22 08:00:45;;;;;;;9.43;4.47;;;40.90;31.00;;;;;;4373018;32;20076;-38
2021/06/22 08:03:19;;;;;;;9.65;3.83;;;40.90;30.70;;;;;;4385631;32;20061;-38
2021/06/22 08:05:48;;;;;;;10.13;4.93;;;40.90;30.60;;;;;;4385587;32;20065;-38
2021/06/22 08:08:17;;;;;;;6.85;3.62;;;41.00;30.60;;;;;;4385787;32;20532;-39
2021/06/22 08:10:49;;;;;;;9.70;3.33;;;41.10;30.40;;;;;;4385863;32;20074;-39
2021/06/22 08:13:16;;;;;;;6.20;3.30;;;41.10;30.10;;;;;;4386612;32;20205;-37
2021/06/22 08:15:42;;;;;;;5.80;4.37;;;41.10;29.90;;;;;;4376954;32;20081;-38
2021/06/22 08:18:09;;;;;;;4.90;3.65;;;41.00;30.00;;;;;;4391140;32;20077;-38
2021/06/22 08:20:37;;;;;;;5.90;3.28;;;40.90;30.00;;;;;;4390853;32;20173;-39
2021/06/22 08:23:04;;;;;;;7.18;3.60;;;40.80;30.10;;;;;;4391163;32;20093;-37
2021/06/22 08:25:31;;;;;;;5.07;3.65;;;40.80;30.20;;;;;;4390657;32;20158;-39
2021/06/22 08:27:58;;;;;;;6.10;3.05;;;40.90;30.00;;;;;;4390943;32;20169;-38
2021/06/22 08:30:25;;;;;;;3.72;2.75;;;41.00;30.40;;;;;;4390734;32;20170;-37
2021/06/22 08:32:52;;;;;;;8.13;3.70;;;41.00;29.40;;;;;;4390589;32;20479;-38
2021/06/22 08:35:18;;;;;;;2.85;2.55;;;41.00;29.20;;;;;;4390555;32;20065;-37
2021/06/22 08:37:45;;;;;;;4.10;2.20;;;41.20;29.10;;;;;;4376887;32;20054;-38
2021/06/22 08:40:12;;;;;;;5.30;3.08;;;41.40;28.00;;;;;;4376774;32;20561;-38
2021/06/22 08:42:40;;;;;;;6.75;2.22;;;41.50;27.40;;;;;;4390222;32;20122;-36
2021/06/22 08:45:10;;;;;;;7.37;2.97;;;41.70;28.40;;;;;;4390202;32;20085;-38
2021/06/22 08:47:37;;;;;;;5.93;2.60;;;41.70;29.20;;;;;;4390372;32;20056;-36
2021/06/22 08:50:05;;;;;;;6.75;3.08;;;41.80;29.10;;;;;;4390491;32;20133;-37
2021/06/22 08:52:34;;;;;;;5.95;2.40;;;41.80;28.80;;;;;;4390323;32;20077;-37
2021/06/22 08:55:01;;;;;;;3.05;1.70;;;41.90;28.50;;;;;;4390232;32;20074;-38
2021/06/22 08:57:27;;;;;;;3.03;1.65;;;42.20;27.30;;;;;;4389954;32;20081;-38
2021/06/22 08:59:54;;;;;;;4.43;1.70;;;42.60;26.10;;;;;;4390093;32;20080;-39
2021/06/22 09:02:25;;;;;;;2.90;1.65;;;43.10;25.80;;;;;;4390271;32;20073;-38
2021/06/22 09:04:52;;;;;;;3.97;2.00;;;43.50;25.20;;;;;;4390322;32;20070;-38
2021/06/22 09:07:45;;;;;;;9.75;2.30;;;43.90;25.60;;;;;;4390061;32;20065;-38
2021/06/22 09:10:20;;;;;;;4.30;1.70;;;44.10;26.20;;;;;;4390086;32;20173;-38
2021/06/22 09:12:46;;;;;;;3.40;1.48;;;44.20;25.50;;;;;;4388626;32;20046;-38
2021/06/22 09:15:25;;;;;;;3.60;1.90;;;44.30;25.10;;;;;;4388636;32;20073;-39
2021/06/22 09:17:52;;;;;;;5.00;1.50;;;44.50;25.60;;;;;;4388469;32;20083;-38
2021/06/22 09:20:52;;;;;;;4.10;1.80;;;44.50;25.80;;;;;;4388128;32;20555;-39
2021/06/22 09:23:32;;;;;;;5.30;1.50;;;44.60;24.90;;;;;;4342447;32;20143;-38
2021/06/22 09:25:59;;;;;;;2.28;1.73;;;44.40;24.80;;;;;;4341649;32;20479;-38
2021/06/22 09:28:29;;;;;;;4.35;1.50;;;44.30;24.50;;;;;;4342446;33;20078;-38
2021/06/22 09:31:06;;;;;;;3.55;1.48;;;44.30;24.40;;;;;;4342492;33;20078;-38
2021/06/22 09:33:43;;;;;;;2.17;1.70;;;44.20;24.90;;;;;;4342366;33;20093;-38
2021/06/22 09:36:21;;;;;;;3.85;1.92;;;44.00;25.10;;;;;;4342497;32;20075;-39
2021/06/22 09:38:54;;;;;;;2.35;1.70;;;43.90;25.40;;;;;;4342620;32;20177;-39
2021/06/22 09:41:27;;;;;;;;;;;43.90;25.20;;;;;;4342995;32;20141;-39
2021/06/22 09:44:08;;;;;;;2.95;1.87;;;43.80;25.40;;;;;;4330215;33;19966;-38
2021/06/22 09:46:49;;;;;;;3.50;1.77;;;43.90;25.50;;;;;;4342182;32;20087;-39
2021/06/22 09:49:19;;;;;;;8.15;1.98;;;43.80;25.60;;;;;;4342337;32;20506;-39
2021/06/22 09:54:22;;;;;;;5.78;2.00;;;43.80;25.40;;;;;;4342299;32;20179;-39
2021/06/22 09:56:55;;;;;;;4.50;1.98;;;43.80;25.60;;;;;;4342096;33;20109;-38
2021/06/22 09:59:22;;;;;;;1.40;1.30;;;43.90;25.70;;;;;;4375365;32;20070;-39
2021/06/22 10:01:49;;;;;;;5.87;2.10;;;44.00;25.40;;;;;;4389520;32;20066;-39
2021/06/22 10:04:27;;;;;;;2.50;1.55;;;44.00;25.20;;;;;;4389582;32;20089;-39
2021/06/22 10:06:57;;;;;;;5.18;2.10;;;44.10;25.40;;;;;;4387884;32;20522;-38
2021/06/22 10:09:34;;;;;;;1.95;1.50;;;44.20;25.40;;;;;;4389325;32;20065;-38
2021/06/22 10:12:11;;;;;;;5.95;2.08;;;44.40;25.10;;;;;;4389084;32;20050;-38
2021/06/22 10:14:43;;;;;;;4.72;2.08;;;44.40;25.00;;;;;;4388808;32;20108;-39
2021/06/22 10:17:21;;;;;;;4.57;2.00;;;44.40;24.90;;;;;;4388803;32;20099;-37
2021/06/22 10:19:53;;;;;;;3.53;2.00;;;44.60;25.40;;;;;;4387796;32;20085;-37
2021/06/22 10:22:23;;;;;;;4.40;2.60;;;44.60;25.30;;;;;;4389368;32;20069;-40
2021/06/22 10:24:50;;;;;;;7.12;2.37;;;44.60;25.20;;;;;;4358823;32;20482;-37
2021/06/22 10:27:20;;;;;;;5.65;2.40;;;44.60;25.40;;;;;;4371542;32;20102;-37
2021/06/22 10:29:52;;;;;;;10.65;2.20;;;44.60;25.20;;;;;;4371334;32;20149;-38
2021/06/22 10:32:19;;;;;;;4.90;2.17;;;44.70;25.30;;;;;;4359097;32;20068;-38
2021/06/22 10:34:50;;;;;;;4.35;1.80;;;44.90;25.40;;;;;;4371524;32;20094;-39
2021/06/22 10:37:36;;;;;;;7.40;2.42;;;44.90;25.20;;;;;;4370297;32;20614;-39
2021/06/22 10:40:12;;;;;;;3.80;2.05;;;44.90;25.20;;;;;;4371070;32;20070;-38
2021/06/22 10:43:01;;;;;;;3.70;2.00;;;44.80;25.20;;;;;;4326143;33;20082;-37
2021/06/22 10:45:27;;;;;;;6.40;2.17;;;44.60;25.20;;;;;;4326576;33;20102;-37
2021/06/22 10:47:56;;;;;;;5.05;2.33;;;44.60;25.10;;;;;;4326520;33;20524;-38
2021/06/22 10:50:23;;;;;;;2.85;1.83;;;44.60;25.20;;;;;;4326629;33;20078;-38
2021/06/22 10:52:58;;;;;;;2.92;2.05;;;44.40;25.10;;;;;;4326439;33;20063;-39
2021/06/22 10:55:45;;;;;;;4.62;2.30;;;44.30;25.40;;;;;;4336626;32;20537;-38
2021/06/22 10:58:14;;;;;;;4.50;2.35;;;44.40;25.20;;;;;;4356280;32;20066;-38
2021/06/22 11:00:49;;;;;;;5.53;2.15;;;44.40;25.20;;;;;;4356288;32;20086;-38
2021/06/22 11:03:28;;;;;;;3.72;2.40;;;44.70;25.10;;;;;;4356054;32;20158;-39
2021/06/22 11:06:12;;;;;;;6.10;1.55;;;44.90;25.00;;;;;;4356313;32;20078;-38
2021/06/22 11:08:43;;;;;;;6.32;1.70;;;44.90;24.70;;;;;;4355991;32;20077;-37
2021/06/22 11:11:09;;;;;;;2.25;1.75;;;44.70;24.70;;;;;;4355746;32;20073;-38
2021/06/22 11:13:51;;;;;;;5.70;2.00;;;44.60;24.90;;;;;;4355813;32;20085;-38
2021/06/22 11:16:18;;;;;;;4.03;1.70;;;44.60;24.60;;;;;;4356067;32;20195;-39
2021/06/22 11:18:53;;;;;;;3.10;1.98;;;44.50;24.10;;;;;;4355814;32;20140;-39
2021/06/22 11:21:24;;;;;;;4.57;3.03;;;44.30;24.60;;;;;;4373179;32;20077;-38
2021/06/22 11:24:11;;;;;;;3.00;2.20;;;44.30;24.70;;;;;;4373145;32;20101;-38
2021/06/22 11:26:47;;;;;;;3.30;1.75;;;44.20;24.80;;;;;;4372943;32;20173;-39
2021/06/22 11:29:20;;;;;;;6.15;2.08;;;44.10;25.00;;;;;;4373265;32;20046;-39
2021/06/22 11:31:52;;;;;;;4.22;2.08;;;44.00;25.30;;;;;;4373176;32;20548;-38
2021/06/22 11:34:28;;;;;;;1.73;1.45;;;43.90;25.20;;;;;;4373110;32;20205;-39
2021/06/22 11:37:17;;;;;;;3.95;1.65;;;43.90;24.70;;;;;;4373335;32;20078;-39
2021/06/22 11:40:11;;;;;;;4.20;1.73;;;43.80;24.70;;;;;;4372788;32;20179;-38
2021/06/22 11:42:39;;;;;;;4.93;1.50;;;43.60;25.00;;;;;;4373283;32;20085;-38
2021/06/22 11:45:24;;;;;;;4.03;1.75;;;43.70;24.60;;;;;;4372700;32;20084;-38
2021/06/22 11:47:51;;;;;;;10.40;2.08;;;43.60;24.80;;;;;;4367386;32;20047;-38
2021/06/22 11:50:24;;;;;;;8.00;2.20;;;43.50;25.20;;;;;;4357910;32;20106;-38
2021/06/22 11:53:02;;;;;;;3.35;2.28;;;43.50;26.70;;;;;;4357464;32;20172;-40
2021/06/22 11:55:28;;;;;;;7.05;2.62;;;43.70;27.10;;;;;;4358109;32;20065;-38
2021/06/22 11:57:59;;;;;;;3.67;2.15;;;44.00;26.90;;;;;;4358012;32;20525;-38
2021/06/22 12:00:33;;;;;;;11.90;2.40;;;44.20;26.30;;;;;;4357838;32;20142;-38
2021/06/22 12:03:06;;;;;;;6.55;2.03;;;44.20;26.10;;;;;;4357697;32;20062;-37
2021/06/22 12:05:34;;;;;;;2.30;1.85;;;44.20;25.90;;;;;;4356368;32;20085;-38
2021/06/22 12:08:03;;;;;;;2.62;1.80;;;44.30;25.30;;;;;;4370249;32;20058;-39
2021/06/22 12:10:44;;;;;;;7.55;1.87;;;44.60;24.90;;;;;;4388196;32;20141;-39
2021/06/22 12:13:32;;;;;;;7.80;2.28;;;45.00;24.80;;;;;;4387763;32;20095;-38
2021/06/22 12:16:23;;;;;;;6.28;2.30;;;45.30;24.80;;;;;;4387909;32;20069;-39
2021/06/22 12:18:51;;;;;;;6.22;2.00;;;45.50;24.90;;;;;;4387743;32;20500;-38
2021/06/22 12:21:17;;;;;;;5.60;2.65;;;45.80;24.80;;;;;;4374027;32;20093;-38
2021/06/22 12:23:44;;;;;;;7.47;2.30;;;46.00;25.00;;;;;;4387798;32;20058;-38
2021/06/22 12:26:12;;;;;;;5.70;2.22;;;46.20;24.40;;;;;;4373392;32;20614;-39
2021/06/22 12:28:39;;;;;;;2.70;1.60;;;46.10;24.50;;;;;;4387776;32;20157;-38
2021/06/22 12:31:06;;;;;;;1.98;1.20;;;46.00;24.40;;;;;;4387271;32;20073;-37
2021/06/22 12:33:49;;;;;;;2.37;1.50;;;45.80;24.20;;;;;;4386887;32;20074;-38
2021/06/22 12:36:21;;;;;;;;;;;45.60;23.50;;;;;;4387428;32;20183;-38
2021/06/22 12:38:59;;;;;;;1.40;1.30;;;45.30;23.70;;;;;;4373820;32;20041;-39
2021/06/22 12:41:32;;;;;;;2.78;1.62;;;45.10;23.40;;;;;;4387656;32;20134;-38
2021/06/22 12:43:59;;;;;;;6.85;1.80;;;44.80;23.80;;;;;;4387654;32;20068;-38
2021/06/22 12:46:27;;;;;;;3.37;1.55;;;44.50;24.40;;;;;;4387062;32;20447;-39
2021/06/22 12:49:11;;;;;;;2.72;1.50;;;44.20;24.00;;;;;;4384621;32;20550;-38
2021/06/22 12:51:43;;;;;;;2.37;2.00;;;44.10;24.00;;;;;;4402389;32;20060;-38
2021/06/22 12:54:11;;;;;;;2.45;1.90;;;44.10;24.10;;;;;;4387864;32;20532;-38